createdAt,value
2023-02-13T00:00:20.299Z,1.24
2023-02-13T00:02:47.349Z,1.32
2023-02-13T00:05:13.952Z,1.38
2023-02-13T00:07:40.665Z,1.31
2023-02-13T00:10:08.134Z,1.24
2023-02-13T00:12:35.176Z,1.19
2023-02-13T00:15:01.809Z,1.21
2023-02-13T00:17:28.431Z,1.22
2023-02-13T00:19:55.181Z,1.18
2023-02-13T00:22:21.741Z,1.09
2023-02-13T00:24:48.460Z,1.12
2023-02-13T00:27:15.265Z,1.06
2023-02-13T00:29:41.875Z,1.04
2023-02-13T00:32:09.105Z,1.07
2023-02-13T00:34:36.500Z,1.06
2023-02-13T00:37:03.677Z,1.06
2023-02-13T00:39:30.247Z,1.04
2023-02-13T00:41:57.058Z,1.01
2023-02-13T00:44:23.579Z,1.01
2023-02-13T00:46:50.352Z,1.06
2023-02-13T00:49:17.429Z,1.08
2023-02-13T00:51:43.945Z,1.09
2023-02-13T00:54:10.637Z,1.02
2023-02-13T00:56:37.435Z,1.02
2023-02-13T00:59:05.784Z,0.98
2023-02-13T01:01:32.806Z,1.03
2023-02-13T01:04:00.005Z,1.01
2023-02-13T01:06:27.641Z,1.02
2023-02-13T01:08:54.565Z,1.03
2023-02-13T01:11:21.441Z,0.93
2023-02-13T01:13:48.093Z,0.86
2023-02-13T01:16:17.926Z,0.83
2023-02-13T01:18:44.933Z,0.74
2023-02-13T01:21:18.706Z,0.77
2023-02-13T01:23:46.302Z,0.82
2023-02-13T01:26:21.359Z,0.78
2023-02-13T01:28:53.525Z,0.86
2023-02-13T01:31:21.209Z,0.77
2023-02-13T01:33:50.313Z,0.81
2023-02-13T01:36:17.135Z,0.79
2023-02-13T01:38:43.911Z,0.82
2023-02-13T01:41:11.152Z,0.86
2023-02-13T01:43:51.827Z,0.86
2023-02-13T01:46:34.074Z,0.86
2023-02-13T01:49:10.783Z,0.76
2023-02-13T01:51:38.945Z,0.84
2023-02-13T01:54:15.200Z,0.92
2023-02-13T01:56:46.843Z,0.94
2023-02-13T01:59:19.106Z,1.00
2023-02-13T02:01:47.863Z,0.90
2023-02-13T02:04:22.756Z,0.88
2023-02-13T02:06:59.526Z,0.84
2023-02-13T02:09:37.494Z,0.80
2023-02-13T02:12:14.857Z,0.76
2023-02-13T02:14:43.286Z,0.74
2023-02-13T02:17:11.916Z,0.81
2023-02-13T02:19:44.750Z,0.77
2023-02-13T02:22:48.856Z,0.77
2023-02-13T02:25:55.263Z,0.84
2023-02-13T02:28:48.933Z,0.78
2023-02-13T02:31:37.659Z,0.73
2023-02-13T02:34:26.185Z,0.73
2023-02-13T02:37:18.509Z,0.75
2023-02-13T02:39:58.200Z,0.68
2023-02-13T02:42:59.182Z,0.71
2023-02-13T02:46:07.262Z,0.65
2023-02-13T02:49:13.499Z,0.58
2023-02-13T02:51:55.152Z,0.58
2023-02-13T02:55:03.723Z,0.64
2023-02-13T02:57:52.503Z,0.54
2023-02-13T03:00:42.933Z,0.51
2023-02-13T03:03:36.525Z,0.51
2023-02-13T03:06:12.136Z,0.54
2023-02-13T03:08:59.910Z,0.56
2023-02-13T03:11:46.096Z,0.57
2023-02-13T03:14:18.276Z,0.56
2023-02-13T03:17:03.849Z,0.55
2023-02-13T03:20:11.958Z,0.67
2023-02-13T03:23:00.231Z,0.55
2023-02-13T03:26:07.396Z,0.59
2023-02-13T03:29:04.498Z,0.53
2023-02-13T03:31:46.594Z,0.44
2023-02-13T03:34:15.495Z,0.42
2023-02-13T03:37:23.942Z,0.47
2023-02-13T03:40:00.924Z,0.47
2023-02-13T03:42:36.427Z,0.48
2023-02-13T03:45:27.928Z,0.50
2023-02-13T03:47:58.810Z,0.42
2023-02-13T03:50:27.990Z,0.48
2023-02-13T03:53:06.842Z,0.43
2023-02-13T03:55:56.295Z,0.46
2023-02-13T03:58:46.967Z,0.43
2023-02-13T04:01:17.807Z,0.49
2023-02-13T04:03:52.274Z,0.49
2023-02-13T04:06:27.703Z,0.45
2023-02-13T04:08:54.299Z,0.46
2023-02-13T04:11:28.300Z,0.42
2023-02-13T04:14:01.523Z,0.49
2023-02-13T04:16:34.975Z,0.43
2023-02-13T04:19:02.712Z,0.47
2023-02-13T04:21:36.763Z,0.49
2023-02-13T04:24:04.164Z,0.50
2023-02-13T04:26:37.869Z,0.48
2023-02-13T04:29:05.081Z,0.53
2023-02-13T04:31:32.141Z,0.38
2023-02-13T04:33:58.863Z,0.43
2023-02-13T04:36:25.621Z,0.27
2023-02-13T04:38:52.711Z,0.24
2023-02-13T04:41:19.545Z,0.28
2023-02-13T04:43:46.237Z,0.28
2023-02-13T04:46:13.333Z,0.32
2023-02-13T04:48:39.928Z,0.35
2023-02-13T04:51:06.756Z,0.40
2023-02-13T04:53:33.275Z,0.30
2023-02-13T04:56:00.142Z,0.17
2023-02-13T04:58:26.737Z,0.09
2023-02-13T05:00:53.482Z,0.14
2023-02-13T05:03:20.284Z,0.03
2023-02-13T05:05:48.458Z,0.03
2023-02-13T05:08:15.410Z,-0.05
2023-02-13T05:10:42.259Z,-0.04
2023-02-13T05:13:08.921Z,-0.07
2023-02-13T05:15:35.638Z,-0.04
2023-02-13T05:18:02.409Z,-0.13
2023-02-13T05:20:28.969Z,-0.20
2023-02-13T05:23:13.958Z,-0.18
2023-02-13T05:25:42.022Z,-0.15
2023-02-13T05:28:32.319Z,-0.04
2023-02-13T05:30:59.439Z,0.02
2023-02-13T05:33:26.786Z,0.00
2023-02-13T05:35:53.478Z,-0.02
2023-02-13T05:38:20.199Z,0.00
2023-02-13T05:40:46.796Z,0.02
2023-02-13T05:43:13.530Z,0.06
2023-02-13T05:45:40.410Z,0.09
2023-02-13T05:48:07.260Z,0.07
2023-02-13T05:50:34.483Z,0.12
2023-02-13T05:53:01.442Z,0.15
2023-02-13T05:55:28.110Z,0.09
2023-02-13T05:57:58.321Z,0.13
2023-02-13T06:00:25.341Z,0.12
2023-02-13T06:02:52.440Z,0.15
2023-02-13T06:05:19.053Z,0.17
2023-02-13T06:07:45.604Z,0.18
2023-02-13T06:10:12.245Z,0.18
2023-02-13T06:12:38.856Z,0.18
2023-02-13T06:15:06.730Z,0.19
2023-02-13T06:17:33.295Z,0.20
2023-02-13T06:20:00.013Z,0.17
2023-02-13T06:22:26.579Z,0.11
2023-02-13T06:24:53.174Z,0.24
2023-02-13T06:27:19.734Z,0.21
2023-02-13T06:29:46.869Z,0.16
2023-02-13T06:32:14.080Z,0.10
2023-02-13T06:34:40.709Z,-0.01
2023-02-13T06:37:07.645Z,-0.01
2023-02-13T06:39:34.719Z,0.04
2023-02-13T06:42:01.360Z,0.03
2023-02-13T06:44:28.018Z,0.12
2023-02-13T06:46:54.791Z,0.13
2023-02-13T06:49:21.389Z,0.10
2023-02-13T06:51:48.389Z,0.08
2023-02-13T06:54:15.369Z,0.29
2023-02-13T06:56:42.024Z,0.19
2023-02-13T06:59:08.788Z,0.13
2023-02-13T07:01:35.599Z,0.06
2023-02-13T07:04:02.343Z,0.13
2023-02-13T07:06:29.210Z,0.29
2023-02-13T07:08:55.988Z,0.38
2023-02-13T07:11:24.846Z,0.36
2023-02-13T07:13:54.452Z,0.17
2023-02-13T07:16:21.321Z,0.08
2023-02-13T07:18:48.116Z,0.00
2023-02-13T07:21:14.671Z,-0.01
2023-02-13T07:23:41.504Z,0.18
2023-02-13T07:26:08.114Z,0.13
2023-02-13T07:28:34.858Z,0.18
2023-02-13T07:31:05.802Z,-0.01
2023-02-13T07:33:35.581Z,-0.01
2023-02-13T07:36:04.928Z,0.05
2023-02-13T07:38:32.501Z,-0.02
2023-02-13T07:41:04.269Z,0.02
2023-02-13T07:43:31.212Z,0.05
2023-02-13T07:46:03.149Z,-0.03
2023-02-13T07:48:31.500Z,0.01
2023-02-13T07:51:05.673Z,-0.03
2023-02-13T07:53:32.300Z,-0.16
2023-02-13T07:55:59.164Z,-0.08
2023-02-13T07:58:25.938Z,-0.01
2023-02-13T08:00:52.635Z,0.00
2023-02-13T08:03:19.237Z,0.00
2023-02-13T08:05:48.645Z,0.14
2023-02-13T08:08:15.924Z,0.17
2023-02-13T08:11:01.180Z,0.09
2023-02-13T08:13:28.242Z,0.09
2023-02-13T08:15:57.868Z,0.29
2023-02-13T08:18:24.792Z,0.22
2023-02-13T08:20:51.486Z,0.29
2023-02-13T08:23:18.205Z,0.33
2023-02-13T08:25:45.089Z,0.30
2023-02-13T08:28:11.906Z,0.29
2023-02-13T08:30:38.637Z,0.30
2023-02-13T08:33:05.376Z,0.18
2023-02-13T08:35:32.239Z,0.24
2023-02-13T08:38:03.937Z,0.08
2023-02-13T08:40:31.363Z,0.03
2023-02-13T08:43:02.261Z,0.03
2023-02-13T08:45:29.033Z,0.15
2023-02-13T08:47:57.746Z,0.22
2023-02-13T08:50:25.406Z,0.14
2023-02-13T08:52:52.370Z,0.08
2023-02-13T08:55:19.357Z,0.08
2023-02-13T08:57:46.528Z,0.04
2023-02-13T09:00:13.688Z,0.13
2023-02-13T09:02:40.612Z,0.02
2023-02-13T09:05:07.428Z,0.09
2023-02-13T09:07:34.163Z,0.23
2023-02-13T09:10:00.753Z,0.16
2023-02-13T09:12:27.332Z,0.34
2023-02-13T09:14:54.184Z,0.36
2023-02-13T09:17:20.842Z,0.41
2023-02-13T09:19:47.497Z,0.25
2023-02-13T09:22:17.060Z,0.24
2023-02-13T09:24:44.047Z,0.30
2023-02-13T09:27:10.591Z,0.40
2023-02-13T09:29:37.335Z,0.40
2023-02-13T09:32:05.600Z,0.58
2023-02-13T09:34:32.265Z,0.55
2023-02-13T09:36:59.044Z,0.57
2023-02-13T09:39:25.994Z,0.61
2023-02-13T09:41:54.079Z,0.61
2023-02-13T09:44:43.370Z,0.37
2023-02-13T09:47:20.589Z,0.45
2023-02-13T09:49:52.825Z,0.45
2023-02-13T09:52:19.909Z,0.32
2023-02-13T09:54:46.615Z,0.43
2023-02-13T09:57:36.945Z,0.28
2023-02-13T10:00:15.447Z,0.29
2023-02-13T10:02:42.255Z,0.37
2023-02-13T10:05:35.525Z,0.50
2023-02-13T10:08:24.063Z,0.60
2023-02-13T10:11:02.790Z,0.69
2023-02-13T10:13:47.619Z,0.72
2023-02-13T10:16:22.528Z,0.60
2023-02-13T10:19:15.493Z,0.79
2023-02-13T10:22:05.236Z,1.13
2023-02-13T10:24:38.902Z,1.14
2023-02-13T10:27:18.136Z,1.23
2023-02-13T10:30:06.967Z,1.46
2023-02-13T10:33:11.155Z,1.32
2023-02-13T10:35:39.245Z,0.95
2023-02-13T10:38:18.437Z,1.10
2023-02-13T10:41:12.628Z,1.38
2023-02-13T10:44:12.484Z,1.60
2023-02-13T10:46:57.863Z,1.64
2023-02-13T10:49:45.811Z,1.92
2023-02-13T10:52:26.840Z,1.86
2023-02-13T10:55:12.155Z,1.93
2023-02-13T10:58:06.134Z,2.00
2023-02-13T11:00:39.356Z,1.88
2023-02-13T11:03:11.183Z,1.89
2023-02-13T11:05:39.377Z,1.81
2023-02-13T11:08:33.191Z,2.17
2023-02-13T11:11:00.177Z,2.16
2023-02-13T11:13:29.152Z,1.83
2023-02-13T11:16:10.538Z,1.93
2023-02-13T11:18:41.421Z,2.08
2023-02-13T11:21:11.438Z,2.15
2023-02-13T11:23:43.692Z,2.08
2023-02-13T11:26:22.671Z,2.20
2023-02-13T11:28:56.505Z,2.27
2023-02-13T11:31:30.999Z,2.30
2023-02-13T11:34:00.246Z,2.13
2023-02-13T11:36:32.197Z,1.94
2023-02-13T11:39:22.885Z,1.76
2023-02-13T11:41:52.902Z,1.62
2023-02-13T11:44:27.228Z,1.73
2023-02-13T11:46:57.041Z,1.96
2023-02-13T11:49:25.227Z,1.99
2023-02-13T11:51:54.841Z,2.16
2023-02-13T11:54:26.767Z,2.21
2023-02-13T11:58:00.262Z,2.58
2023-02-13T12:00:42.956Z,2.75
2023-02-13T12:03:21.874Z,2.96
2023-02-13T12:06:07.260Z,2.96
2023-02-13T12:08:37.852Z,2.84
2023-02-13T12:11:24.662Z,2.77
2023-02-13T12:13:52.448Z,3.06
2023-02-13T12:16:24.954Z,2.93
2023-02-13T12:18:56.074Z,2.54
2023-02-13T12:21:44.702Z,2.44
2023-02-13T12:24:29.563Z,2.65
2023-02-13T12:27:19.267Z,2.48
2023-02-13T12:30:05.300Z,2.15
2023-02-13T12:32:59.579Z,2.42
2023-02-13T12:35:29.309Z,2.59
2023-02-13T12:37:59.958Z,2.89
2023-02-13T12:40:39.942Z,3.13
2023-02-13T12:43:28.599Z,3.20
2023-02-13T12:46:27.349Z,3.25
2023-02-13T12:49:09.368Z,3.39
2023-02-13T12:51:54.317Z,3.62
2023-02-13T12:54:26.920Z,3.71
2023-02-13T12:57:36.544Z,3.82
2023-02-13T13:00:38.386Z,3.86
2023-02-13T13:03:18.172Z,4.02
2023-02-13T13:06:09.022Z,4.04
2023-02-13T13:09:03.006Z,4.05
2023-02-13T13:11:44.946Z,4.32
2023-02-13T13:14:30.303Z,4.33
2023-02-13T13:17:03.182Z,4.23
2023-02-13T13:19:51.384Z,4.21
2023-02-13T13:22:18.106Z,4.44
2023-02-13T13:25:12.724Z,4.15
2023-02-13T13:27:50.226Z,4.30
2023-02-13T13:30:22.708Z,4.30
2023-02-13T13:32:54.836Z,4.23
2023-02-13T13:35:22.222Z,4.48
2023-02-13T13:38:09.956Z,4.52
2023-02-13T13:40:51.111Z,4.85
2023-02-13T13:43:17.744Z,5.03
2023-02-13T13:46:01.868Z,5.21
2023-02-13T13:48:55.985Z,5.51
2023-02-13T13:51:23.456Z,5.39
2023-02-13T13:54:05.183Z,5.25
2023-02-13T13:57:05.456Z,5.47
2023-02-13T13:59:38.249Z,5.60
2023-02-13T14:02:19.969Z,7.74
2023-02-13T14:05:05.416Z,9.51
2023-02-13T14:07:38.173Z,9.44
2023-02-13T14:10:06.150Z,10.62
2023-02-13T14:12:32.680Z,11.77
2023-02-13T14:15:00.225Z,10.63
2023-02-13T14:17:45.297Z,11.90
2023-02-13T14:20:37.376Z,11.81
2023-02-13T14:23:13.114Z,12.66
2023-02-13T14:25:42.788Z,12.99
2023-02-13T14:28:25.128Z,13.09
2023-02-13T14:31:04.445Z,12.32
2023-02-13T14:33:32.688Z,12.22
2023-02-13T14:36:02.992Z,12.39
2023-02-13T14:38:30.271Z,12.68
2023-02-13T14:40:59.203Z,13.47
2023-02-13T14:43:29.998Z,13.80
2023-02-13T14:46:16.922Z,13.82
2023-02-13T14:48:53.072Z,12.94
2023-02-13T14:51:32.076Z,13.14
2023-02-13T14:54:05.042Z,14.00
2023-02-13T14:56:32.601Z,13.70
2023-02-13T14:59:07.415Z,14.32
2023-02-13T15:01:42.673Z,13.12
2023-02-13T15:04:22.683Z,12.95
2023-02-13T15:06:50.975Z,12.49
2023-02-13T15:09:20.666Z,11.45
2023-02-13T15:11:47.363Z,11.97
2023-02-13T15:14:18.506Z,12.66
2023-02-13T15:16:48.671Z,12.15
2023-02-13T15:19:17.288Z,12.19
2023-02-13T15:21:50.903Z,11.89
2023-02-13T15:24:17.725Z,10.86
2023-02-13T15:26:50.969Z,9.63
2023-02-13T15:29:29.213Z,8.24
2023-02-13T15:31:58.871Z,7.30
2023-02-13T15:34:29.905Z,7.55
2023-02-13T15:36:56.975Z,7.60
2023-02-13T15:39:29.290Z,6.98
2023-02-13T15:41:59.059Z,6.33
2023-02-13T15:44:36.898Z,5.67
2023-02-13T15:47:14.421Z,5.27
2023-02-13T15:49:47.356Z,5.00
2023-02-13T15:52:36.773Z,4.65
2023-02-13T15:55:04.165Z,4.37
2023-02-13T15:57:31.545Z,4.09
2023-02-13T16:00:00.484Z,3.95
2023-02-13T16:02:41.898Z,3.68
2023-02-13T16:05:12.994Z,3.33
2023-02-13T16:07:51.581Z,3.15
2023-02-13T16:10:36.383Z,2.96
2023-02-13T16:13:05.860Z,2.48
2023-02-13T16:15:35.895Z,1.92
2023-02-13T16:18:03.962Z,1.70
2023-02-13T16:20:33.353Z,1.59
2023-02-13T16:23:13.821Z,1.45
2023-02-13T16:25:41.305Z,1.06
2023-02-13T16:28:24.283Z,0.93
2023-02-13T16:31:00.166Z,0.71
2023-02-13T16:33:26.819Z,0.64
2023-02-13T16:35:56.652Z,0.54
2023-02-13T16:38:25.979Z,0.39
2023-02-13T16:40:53.208Z,0.35
2023-02-13T16:43:41.658Z,0.46
2023-02-13T16:46:26.893Z,0.21
2023-02-13T16:48:56.255Z,0.02
2023-02-13T16:51:30.760Z,-0.07
2023-02-13T16:54:04.533Z,-0.10
2023-02-13T16:56:48.436Z,0.06
2023-02-13T16:59:33.239Z,-0.03
2023-02-13T17:02:25.263Z,-0.09
2023-02-13T17:05:14.797Z,-0.11
2023-02-13T17:07:44.103Z,-0.19
2023-02-13T17:10:23.874Z,-0.30
2023-02-13T17:12:51.487Z,-0.31
2023-02-13T17:15:23.656Z,-0.36
2023-02-13T17:17:51.272Z,-0.40
2023-02-13T17:20:21.533Z,-0.38
2023-02-13T17:22:50.876Z,-0.50
2023-02-13T17:25:20.896Z,-0.51
2023-02-13T17:27:47.756Z,-0.51
2023-02-13T17:30:19.794Z,-0.60
2023-02-13T17:32:48.428Z,-0.68
2023-02-13T17:35:16.577Z,-0.73
2023-02-13T17:37:44.470Z,-0.74
2023-02-13T17:40:18.034Z,-0.85
2023-02-13T17:42:47.051Z,-0.95
2023-02-13T17:45:15.833Z,-1.05
2023-02-13T17:47:42.519Z,-1.14
2023-02-13T17:50:11.006Z,-1.16
2023-02-13T17:52:38.801Z,-1.24
2023-02-13T17:55:07.448Z,-1.24
2023-02-13T17:57:34.195Z,-1.14
2023-02-13T18:00:04.700Z,-1.08
2023-02-13T18:02:39.229Z,-0.95
2023-02-13T18:05:06.679Z,-0.80
2023-02-13T18:07:33.258Z,-0.64
2023-02-13T18:09:59.791Z,-0.55
2023-02-13T18:12:26.566Z,-0.46
2023-02-13T18:14:54.149Z,-0.36
2023-02-13T18:17:21.232Z,-0.29
2023-02-13T18:19:47.918Z,-0.19
2023-02-13T18:22:14.541Z,-0.15
2023-02-13T18:24:42.450Z,-0.15
2023-02-13T18:27:11.214Z,-0.06
2023-02-13T18:29:38.883Z,0.02
2023-02-13T18:32:10.260Z,0.09
2023-02-13T18:34:38.479Z,0.19
2023-02-13T18:37:06.455Z,0.17
2023-02-13T18:39:33.632Z,0.13
2023-02-13T18:42:00.610Z,0.10
2023-02-13T18:44:28.869Z,0.06
2023-02-13T18:46:56.466Z,0.03
2023-02-13T18:49:23.129Z,-0.01
2023-02-13T18:51:51.030Z,0.00
2023-02-13T18:54:21.566Z,-0.05
2023-02-13T18:56:48.861Z,-0.01
2023-02-13T18:59:16.001Z,0.00
2023-02-13T19:01:42.621Z,-0.06
2023-02-13T19:04:11.092Z,-0.08
2023-02-13T19:06:42.423Z,-0.03
2023-02-13T19:09:09.861Z,-0.02
2023-02-13T19:11:38.448Z,-0.11
2023-02-13T19:14:07.164Z,-0.03
2023-02-13T19:16:35.523Z,0.01
2023-02-13T19:19:04.651Z,-0.05
2023-02-13T19:21:34.045Z,-0.07
2023-02-13T19:24:02.754Z,0.01
2023-02-13T19:26:29.815Z,-0.09
2023-02-13T19:28:57.751Z,-0.13
2023-02-13T19:31:29.991Z,-0.10
2023-02-13T19:33:56.917Z,-0.01
2023-02-13T19:36:25.661Z,0.03
2023-02-13T19:39:00.353Z,0.02
2023-02-13T19:41:27.236Z,0.00
2023-02-13T19:43:53.867Z,-0.01
2023-02-13T19:46:27.233Z,0.00
2023-02-13T19:48:55.005Z,0.02
2023-02-13T19:51:30.306Z,-0.04
2023-02-13T19:54:05.741Z,-0.12
2023-02-13T19:56:35.290Z,-0.04
2023-02-13T19:59:02.159Z,0.00
2023-02-13T20:01:29.933Z,0.01
2023-02-13T20:03:56.748Z,0.00
2023-02-13T20:06:31.722Z,-0.02
2023-02-13T20:09:01.896Z,0.03
2023-02-13T20:11:28.870Z,0.03
2023-02-13T20:13:57.646Z,0.05
2023-02-13T20:16:24.878Z,-0.07
2023-02-13T20:18:52.478Z,-0.08
2023-02-13T20:21:20.902Z,0.00
2023-02-13T20:23:50.458Z,-0.07
2023-02-13T20:26:17.395Z,-0.08
2023-02-13T20:28:47.882Z,-0.12
2023-02-13T20:31:20.175Z,-0.24
2023-02-13T20:33:48.257Z,-0.25
2023-02-13T20:36:18.623Z,-0.20
2023-02-13T20:38:46.581Z,-0.12
2023-02-13T20:41:19.352Z,-0.14
2023-02-13T20:43:46.940Z,-0.10
2023-02-13T20:46:16.093Z,-0.27
2023-02-13T20:48:45.446Z,-0.30
2023-02-13T20:51:14.417Z,-0.27
2023-02-13T20:53:42.226Z,-0.27
2023-02-13T20:56:15.879Z,-0.29
2023-02-13T20:58:44.172Z,-0.34
2023-02-13T21:01:22.437Z,-0.33
2023-02-13T21:03:53.736Z,-0.38
2023-02-13T21:06:26.074Z,-0.42
2023-02-13T21:08:52.824Z,-0.35
2023-02-13T21:11:20.289Z,-0.45
2023-02-13T21:13:47.668Z,-0.43
2023-02-13T21:16:19.518Z,-0.45
2023-02-13T21:18:51.359Z,-0.42
2023-02-13T21:21:19.173Z,-0.39
2023-02-13T21:23:46.438Z,-0.44
2023-02-13T21:26:18.142Z,-0.50
2023-02-13T21:28:48.667Z,-0.49
2023-02-13T21:31:29.478Z,-0.53
2023-02-13T21:34:05.536Z,-0.52
2023-02-13T21:36:33.919Z,-0.54
2023-02-13T21:39:01.142Z,-0.59
2023-02-13T21:41:27.944Z,-0.59
2023-02-13T21:43:54.926Z,-0.62
2023-02-13T21:46:32.998Z,-0.61
2023-02-13T21:49:02.571Z,-0.57
2023-02-13T21:51:31.782Z,-0.56
2023-02-13T21:53:59.297Z,-0.51
2023-02-13T21:56:29.137Z,-0.63
2023-02-13T21:58:56.646Z,-0.65
2023-02-13T22:01:29.950Z,-0.74
2023-02-13T22:04:00.747Z,-0.89
2023-02-13T22:06:29.470Z,-1.20
2023-02-13T22:09:02.128Z,-1.10
2023-02-13T22:11:29.558Z,-0.99
2023-02-13T22:14:00.076Z,-0.92
2023-02-13T22:16:27.274Z,-1.01
2023-02-13T22:18:54.626Z,-0.97
2023-02-13T22:21:23.549Z,-1.02
2023-02-13T22:23:53.470Z,-1.04
2023-02-13T22:26:30.711Z,-1.10
2023-02-13T22:29:03.269Z,-1.21
2023-02-13T22:31:30.347Z,-1.16
2023-02-13T22:34:03.950Z,-1.23
2023-02-13T22:36:33.070Z,-1.39
2023-02-13T22:38:59.892Z,-1.47
2023-02-13T22:41:27.004Z,-1.59
2023-02-13T22:43:54.118Z,-1.59
2023-02-13T22:46:23.974Z,-1.69
2023-02-13T22:48:54.035Z,-1.76
2023-02-13T22:51:24.373Z,-1.62
2023-02-13T22:53:56.282Z,-1.66
2023-02-13T22:56:24.343Z,-1.74
2023-02-13T22:58:51.863Z,-1.84
2023-02-13T23:01:22.146Z,-1.94
2023-02-13T23:03:48.873Z,-2.03
2023-02-13T23:06:16.242Z,-2.08
2023-02-13T23:08:43.692Z,-2.00
2023-02-13T23:11:35.527Z,-1.99
2023-02-13T23:14:03.131Z,-2.03
2023-02-13T23:16:53.162Z,-2.06
2023-02-13T23:19:20.850Z,-2.08
2023-02-13T23:21:47.608Z,-2.21
2023-02-13T23:24:14.405Z,-2.16
2023-02-13T23:26:41.226Z,-2.05
2023-02-13T23:29:08.015Z,-2.01
2023-02-13T23:31:34.608Z,-2.00
2023-02-13T23:34:01.441Z,-1.99
2023-02-13T23:36:28.658Z,-2.02
2023-02-13T23:38:55.319Z,-2.00
2023-02-13T23:41:22.016Z,-2.10
2023-02-13T23:43:48.623Z,-2.26
2023-02-13T23:46:15.335Z,-2.31
2023-02-13T23:48:42.392Z,-2.19
2023-02-13T23:51:08.929Z,-2.20
2023-02-13T23:53:36.166Z,-2.11
2023-02-13T23:56:03.455Z,-2.03
2023-02-13T23:58:30.565Z,-2.04
